sensor_id;sensor_type;location;lat;lon;timestamp;P1;durP1;ratioP1;P2;durP2;ratioP2
41167;SDS011;26906;45.658;9.272;2023-11-25T07:43:24;0.80;;;0.80;;
41167;SDS011;26906;45.658;9.272;2023-11-25T07:45:50;0.63;;;0.63;;
41167;SDS011;26906;45.658;9.272;2023-11-25T07:48:16;0.52;;;0.40;;
41167;SDS011;26906;45.658;9.272;2023-11-25T07:50:45;0.63;;;0.63;;
41167;SDS011;26906;45.658;9.272;2023-11-25T07:53:12;1.35;;;0.60;;
41167;SDS011;26906;45.658;9.272;2023-11-25T07:55:38;1.08;;;0.60;;
41167;SDS011;26906;45.658;9.272;2023-11-25T07:58:05;1.48;;;0.80;;
41167;SDS011;26906;45.658;9.272;2023-11-25T08:00:31;0.70;;;0.70;;
41167;SDS011;26906;45.658;9.272;2023-11-25T08:02:57;1.15;;;0.50;;
41167;SDS011;26906;45.658;9.272;2023-11-25T08:05:23;3.15;;;0.60;;
41167;SDS011;26906;45.658;9.272;2023-11-25T08:07:53;0.63;;;0.47;;
41167;SDS011;26906;45.658;9.272;2023-11-25T08:10:20;0.63;;;0.45;;
41167;SDS011;26906;45.658;9.272;2023-11-25T08:12:49;1.60;;;0.50;;
41167;SDS011;26906;45.658;9.272;2023-11-25T08:15:15;0.50;;;0.40;;
41167;SDS011;26906;45.658;9.272;2023-11-25T08:17:42;0.32;;;0.32;;
41167;SDS011;26906;45.658;9.272;2023-11-25T08:20:11;0.20;;;0.20;;
41167;SDS011;26906;45.658;9.272;2023-11-25T08:22:37;3.20;;;0.50;;
41167;SDS011;26906;45.658;9.272;2023-11-25T08:25:04;0.50;;;0.30;;
41167;SDS011;26906;45.658;9.272;2023-11-25T08:27:36;0.40;;;0.40;;
41167;SDS011;26906;45.658;9.272;2023-11-25T08:30:03;1.17;;;0.50;;
41167;SDS011;26906;45.658;9.272;2023-11-25T08:32:35;1.58;;;0.60;;
41167;SDS011;26906;45.658;9.272;2023-11-25T08:35:05;1.50;;;0.38;;
41167;SDS011;26906;45.658;9.272;2023-11-25T08:37:31;0.20;;;0.20;;
41167;SDS011;26906;45.658;9.272;2023-11-25T08:39:58;0.60;;;0.40;;
41167;SDS011;26906;45.658;9.272;2023-11-25T08:42:23;0.60;;;0.60;;
41167;SDS011;26906;45.658;9.272;2023-11-25T08:44:52;1.52;;;0.52;;
41167;SDS011;26906;45.658;9.272;2023-11-25T08:47:19;0.70;;;0.70;;
41167;SDS011;26906;45.658;9.272;2023-11-25T08:49:45;1.50;;;0.90;;
41167;SDS011;26906;45.658;9.272;2023-11-25T08:52:12;0.98;;;0.50;;
41167;SDS011;26906;45.658;9.272;2023-11-25T08:54:38;0.68;;;0.40;;
41167;SDS011;26906;45.658;9.272;2023-11-25T08:57:04;1.38;;;0.70;;
41167;SDS011;26906;45.658;9.272;2023-11-25T08:59:32;7.93;;;0.50;;
41167;SDS011;26906;45.658;9.272;2023-11-25T09:01:58;1.58;;;0.40;;
41167;SDS011;26906;45.658;9.272;2023-11-25T09:04:24;0.20;;;0.20;;
41167;SDS011;26906;45.658;9.272;2023-11-25T09:06:53;0.30;;;0.30;;
41167;SDS011;26906;45.658;9.272;2023-11-25T09:09:23;0.30;;;0.30;;
41167;SDS011;26906;45.658;9.272;2023-11-25T09:11:51;0.73;;;0.30;;
41167;SDS011;26906;45.658;9.272;2023-11-25T09:14:19;0.52;;;0.20;;
41167;SDS011;26906;45.658;9.272;2023-11-25T09:16:45;0.60;;;0.40;;
41167;SDS011;26906;45.658;9.272;2023-11-25T09:19:11;0.30;;;0.30;;
41167;SDS011;26906;45.658;9.272;2023-11-25T09:21:38;3.10;;;1.83;;
41167;SDS011;26906;45.658;9.272;2023-11-25T09:24:05;0.50;;;0.50;;
41167;SDS011;26906;45.658;9.272;2023-11-25T09:26:31;2.33;;;0.20;;
41167;SDS011;26906;45.658;9.272;2023-11-25T09:28:59;0.30;;;0.30;;
41167;SDS011;26906;45.658;9.272;2023-11-25T09:31:25;0.77;;;0.40;;
41167;SDS011;26906;45.658;9.272;2023-11-25T09:33:51;0.30;;;0.30;;
41167;SDS011;26906;45.658;9.272;2023-11-25T09:36:17;0.30;;;0.30;;
41167;SDS011;26906;45.658;9.272;2023-11-25T09:38:44;0.20;;;0.20;;
41167;SDS011;26906;45.658;9.272;2023-11-25T09:41:10;0.20;;;0.20;;
41167;SDS011;26906;45.658;9.272;2023-11-25T09:43:36;4.07;;;0.30;;
41167;SDS011;26906;45.658;9.272;2023-11-25T09:46:03;1.35;;;0.35;;
41167;SDS011;26906;45.658;9.272;2023-11-25T09:48:29;0.20;;;0.20;;
41167;SDS011;26906;45.658;9.272;2023-11-25T09:50:56;0.68;;;0.68;;
41167;SDS011;26906;45.658;9.272;2023-11-25T09:53:29;1.25;;;0.30;;
41167;SDS011;26906;45.658;9.272;2023-11-25T09:56:04;5.68;;;0.40;;
41167;SDS011;26906;45.658;9.272;2023-11-25T09:58:35;0.85;;;0.28;;
41167;SDS011;26906;45.658;9.272;2023-11-25T10:01:01;1.48;;;0.38;;
41167;SDS011;26906;45.658;9.272;2023-11-25T10:03:32;2.17;;;0.43;;
41167;SDS011;26906;45.658;9.272;2023-11-25T10:06:00;1.35;;;0.30;;
41167;SDS011;26906;45.658;9.272;2023-11-25T10:08:26;2.00;;;0.40;;
41167;SDS011;26906;45.658;9.272;2023-11-25T10:13:30;0.30;;;0.30;;
41167;SDS011;26906;45.658;9.272;2023-11-25T10:15:57;0.52;;;0.22;;
41167;SDS011;26906;45.658;9.272;2023-11-25T10:18:24;0.73;;;0.40;;
41167;SDS011;26906;45.658;9.272;2023-11-25T10:20:50;0.30;;;0.30;;
41167;SDS011;26906;45.658;9.272;2023-11-25T10:23:22;1.45;;;0.30;;
41167;SDS011;26906;45.658;9.272;2023-11-25T10:25:49;0.60;;;0.22;;
41167;SDS011;26906;45.658;9.272;2023-11-25T10:28:21;0.40;;;0.38;;
41167;SDS011;26906;45.658;9.272;2023-11-25T10:30:57;3.05;;;2.38;;
41167;SDS011;26906;45.658;9.272;2023-11-25T10:33:27;0.57;;;0.40;;
41167;SDS011;26906;45.658;9.272;2023-11-25T10:35:54;0.25;;;0.25;;
41167;SDS011;26906;45.658;9.272;2023-11-25T10:38:21;0.38;;;0.32;;
41167;SDS011;26906;45.658;9.272;2023-11-25T10:41:03;0.80;;;0.30;;
41167;SDS011;26906;45.658;9.272;2023-11-25T10:43:31;0.28;;;0.20;;
41167;SDS011;26906;45.658;9.272;2023-11-25T10:48:28;0.52;;;0.30;;
41167;SDS011;26906;45.658;9.272;2023-11-25T10:50:54;0.30;;;0.30;;
41167;SDS011;26906;45.658;9.272;2023-11-25T10:53:20;0.77;;;0.40;;
41167;SDS011;26906;45.658;9.272;2023-11-25T10:55:48;2.47;;;0.40;;
41167;SDS011;26906;45.658;9.272;2023-11-25T10:58:15;0.88;;;0.38;;
41167;SDS011;26906;45.658;9.272;2023-11-25T11:00:41;1.88;;;0.60;;
41167;SDS011;26906;45.658;9.272;2023-11-25T11:03:11;1.70;;;0.40;;
41167;SDS011;26906;45.658;9.272;2023-11-25T11:05:45;11.15;;;4.90;;
41167;SDS011;26906;45.658;9.272;2023-11-25T11:08:18;8.82;;;2.38;;
41167;SDS011;26906;45.658;9.272;2023-11-25T11:10:50;4.47;;;2.08;;
41167;SDS011;26906;45.658;9.272;2023-11-25T11:13:22;0.98;;;0.75;;
41167;SDS011;26906;45.658;9.272;2023-11-25T11:15:51;3.15;;;0.50;;
41167;SDS011;26906;45.658;9.272;2023-11-25T11:18:23;1.48;;;0.50;;
41167;SDS011;26906;45.658;9.272;2023-11-25T11:20:52;1.17;;;0.70;;
41167;SDS011;26906;45.658;9.272;2023-11-25T11:23:22;0.95;;;0.85;;
41167;SDS011;26906;45.658;9.272;2023-11-25T11:25:51;1.58;;;1.00;;
41167;SDS011;26906;45.658;9.272;2023-11-25T11:28:36;2.08;;;1.30;;
41167;SDS011;26906;45.658;9.272;2023-11-25T11:34:17;1.00;;;0.82;;
41167;SDS011;26906;45.658;9.272;2023-11-25T11:36:44;4.65;;;2.83;;
41167;SDS011;26906;45.658;9.272;2023-11-25T11:39:18;1.77;;;0.65;;
41167;SDS011;26906;45.658;9.272;2023-11-25T11:42:12;0.68;;;0.43;;
41167;SDS011;26906;45.658;9.272;2023-11-25T11:45:05;0.40;;;0.40;;
41167;SDS011;26906;45.658;9.272;2023-11-25T11:50:31;1.33;;;0.40;;
41167;SDS011;26906;45.658;9.272;2023-11-25T11:58:07;0.95;;;0.35;;
41167;SDS011;26906;45.658;9.272;2023-11-25T12:00:41;0.52;;;0.25;;
41167;SDS011;26906;45.658;9.272;2023-11-25T12:03:10;0.85;;;0.40;;
41167;SDS011;26906;45.658;9.272;2023-11-25T12:05:36;0.28;;;0.28;;
41167;SDS011;26906;45.658;9.272;2023-11-25T12:08:02;0.40;;;0.20;;
41167;SDS011;26906;45.658;9.272;2023-11-25T12:10:28;0.43;;;0.20;;
41167;SDS011;26906;45.658;9.272;2023-11-25T12:12:54;0.40;;;0.30;;
41167;SDS011;26906;45.658;9.272;2023-11-25T12:15:20;0.30;;;0.30;;
41167;SDS011;26906;45.658;9.272;2023-11-25T12:17:46;0.30;;;0.30;;
41167;SDS011;26906;45.658;9.272;2023-11-25T12:20:15;0.52;;;0.35;;
41167;SDS011;26906;45.658;9.272;2023-11-25T12:22:41;0.30;;;0.30;;
41167;SDS011;26906;45.658;9.272;2023-11-25T12:25:08;0.47;;;0.35;;
41167;SDS011;26906;45.658;9.272;2023-11-25T12:30:26;1.48;;;0.32;;
41167;SDS011;26906;45.658;9.272;2023-11-25T12:32:53;0.55;;;0.35;;
41167;SDS011;26906;45.658;9.272;2023-11-25T12:35:18;0.50;;;0.40;;
41167;SDS011;26906;45.658;9.272;2023-11-25T12:37:44;2.03;;;0.30;;
41167;SDS011;26906;45.658;9.272;2023-11-25T12:40:18;0.50;;;0.30;;
41167;SDS011;26906;45.658;9.272;2023-11-25T12:42:51;0.63;;;0.25;;
41167;SDS011;26906;45.658;9.272;2023-11-25T12:45:37;13.77;;;4.85;;
41167;SDS011;26906;45.658;9.272;2023-11-25T12:48:05;0.40;;;0.40;;
41167;SDS011;26906;45.658;9.272;2023-11-25T12:50:32;0.30;;;0.30;;
41167;SDS011;26906;45.658;9.272;2023-11-25T12:53:03;3.13;;;0.93;;
41167;SDS011;26906;45.658;9.272;2023-11-25T12:55:42;1.40;;;0.50;;
41167;SDS011;26906;45.658;9.272;2023-11-25T13:00:51;0.38;;;0.38;;
41167;SDS011;26906;45.658;9.272;2023-11-25T13:03:30;1.25;;;0.40;;
41167;SDS011;26906;45.658;9.272;2023-11-25T13:06:05;0.47;;;0.40;;
41167;SDS011;26906;45.658;9.272;2023-11-25T13:08:35;0.80;;;0.30;;
41167;SDS011;26906;45.658;9.272;2023-11-25T13:11:02;1.08;;;0.40;;
41167;SDS011;26906;45.658;9.272;2023-11-25T13:13:30;1.30;;;0.30;;
41167;SDS011;26906;45.658;9.272;2023-11-25T13:15:57;0.35;;;0.30;;
41167;SDS011;26906;45.658;9.272;2023-11-25T13:18:23;1.45;;;0.63;;
41167;SDS011;26906;45.658;9.272;2023-11-25T13:20:50;0.38;;;0.30;;
41167;SDS011;26906;45.658;9.272;2023-11-25T13:23:17;0.50;;;0.50;;
41167;SDS011;26906;45.658;9.272;2023-11-25T13:25:45;0.47;;;0.20;;
41167;SDS011;26906;45.658;9.272;2023-11-25T13:28:14;2.10;;;0.40;;
41167;SDS011;26906;45.658;9.272;2023-11-25T13:30:41;0.63;;;0.40;;
41167;SDS011;26906;45.658;9.272;2023-11-25T13:33:08;3.42;;;1.00;;
41167;SDS011;26906;45.658;9.272;2023-11-25T13:35:37;0.45;;;0.30;;
41167;SDS011;26906;45.658;9.272;2023-11-25T13:38:03;1.17;;;0.80;;
41167;SDS011;26906;45.658;9.272;2023-11-25T13:40:31;0.70;;;0.60;;
41167;SDS011;26906;45.658;9.272;2023-11-25T13:43:06;1.33;;;0.82;;
41167;SDS011;26906;45.658;9.272;2023-11-25T13:45:34;0.90;;;0.70;;
41167;SDS011;26906;45.658;9.272;2023-11-25T13:48:00;1.00;;;0.43;;
41167;SDS011;26906;45.658;9.272;2023-11-25T13:50:30;0.57;;;0.45;;
41167;SDS011;26906;45.658;9.272;2023-11-25T13:53:00;2.95;;;0.50;;
41167;SDS011;26906;45.658;9.272;2023-11-25T13:55:31;0.35;;;0.35;;
41167;SDS011;26906;45.658;9.272;2023-11-25T13:58:03;1.83;;;0.90;;
41167;SDS011;26906;45.658;9.272;2023-11-25T14:00:32;1.20;;;0.68;;
41167;SDS011;26906;45.658;9.272;2023-11-25T14:02:58;0.30;;;0.30;;
41167;SDS011;26906;45.658;9.272;2023-11-25T14:05:25;0.50;;;0.30;;
41167;SDS011;26906;45.658;9.272;2023-11-25T14:07:51;0.30;;;0.30;;
41167;SDS011;26906;45.658;9.272;2023-11-25T14:10:20;0.50;;;0.30;;
41167;SDS011;26906;45.658;9.272;2023-11-25T14:12:47;0.63;;;0.50;;
41167;SDS011;26906;45.658;9.272;2023-11-25T14:15:13;1.13;;;0.43;;
41167;SDS011;26906;45.658;9.272;2023-11-25T14:17:40;0.52;;;0.40;;
41167;SDS011;26906;45.658;9.272;2023-11-25T14:20:06;2.78;;;0.63;;
41167;SDS011;26906;45.658;9.272;2023-11-25T14:22:42;2.08;;;1.02;;
41167;SDS011;26906;45.658;9.272;2023-11-25T14:25:13;0.70;;;0.70;;
41167;SDS011;26906;45.658;9.272;2023-11-25T14:27:44;1.73;;;0.95;;
41167;SDS011;26906;45.658;9.272;2023-11-25T14:30:11;0.90;;;0.75;;
41167;SDS011;26906;45.658;9.272;2023-11-25T14:32:39;1.02;;;0.80;;
41167;SDS011;26906;45.658;9.272;2023-11-25T14:35:07;2.25;;;1.38;;
41167;SDS011;26906;45.658;9.272;2023-11-25T14:37:33;2.03;;;1.30;;
41167;SDS011;26906;45.658;9.272;2023-11-25T14:40:00;2.22;;;0.82;;
41167;SDS011;26906;45.658;9.272;2023-11-25T14:42:27;1.42;;;0.60;;
41167;SDS011;26906;45.658;9.272;2023-11-25T14:44:54;0.65;;;0.65;;
41167;SDS011;26906;45.658;9.272;2023-11-25T14:47:21;0.77;;;0.65;;
41167;SDS011;26906;45.658;9.272;2023-11-25T14:49:48;0.70;;;0.70;;
41167;SDS011;26906;45.658;9.272;2023-11-25T14:52:14;1.52;;;0.77;;
41167;SDS011;26906;45.658;9.272;2023-11-25T14:54:42;1.50;;;0.90;;
41167;SDS011;26906;45.658;9.272;2023-11-25T14:57:09;2.05;;;1.10;;
41167;SDS011;26906;45.658;9.272;2023-11-25T14:59:36;1.27;;;1.10;;
41167;SDS011;26906;45.658;9.272;2023-11-25T15:02:01;2.97;;;1.27;;
41167;SDS011;26906;45.658;9.272;2023-11-25T15:04:28;6.93;;;1.98;;
41167;SDS011;26906;45.658;9.272;2023-11-25T15:06:54;3.60;;;1.55;;
41167;SDS011;26906;45.658;9.272;2023-11-25T15:09:20;2.97;;;2.17;;
41167;SDS011;26906;45.658;9.272;2023-11-25T15:11:46;1.83;;;1.10;;
41167;SDS011;26906;45.658;9.272;2023-11-25T15:14:12;3.58;;;1.73;;
41167;SDS011;26906;45.658;9.272;2023-11-25T15:16:38;4.28;;;2.47;;
41167;SDS011;26906;45.658;9.272;2023-11-25T15:19:04;2.40;;;1.67;;
41167;SDS011;26906;45.658;9.272;2023-11-25T15:21:29;1.42;;;1.33;;
41167;SDS011;26906;45.658;9.272;2023-11-25T15:23:59;2.97;;;1.98;;
41167;SDS011;26906;45.658;9.272;2023-11-25T15:26:28;1.75;;;1.20;;
41167;SDS011;26906;45.658;9.272;2023-11-25T15:28:53;2.03;;;1.30;;
41167;SDS011;26906;45.658;9.272;2023-11-25T15:31:19;1.70;;;1.10;;
41167;SDS011;26906;45.658;9.272;2023-11-25T15:33:45;5.35;;;1.27;;
41167;SDS011;26906;45.658;9.272;2023-11-25T15:36:12;3.05;;;1.38;;
41167;SDS011;26906;45.658;9.272;2023-11-25T15:38:39;4.05;;;1.55;;
41167;SDS011;26906;45.658;9.272;2023-11-25T15:41:10;6.45;;;3.38;;
41167;SDS011;26906;45.658;9.272;2023-11-25T15:43:39;5.10;;;2.85;;
41167;SDS011;26906;45.658;9.272;2023-11-25T15:46:07;3.15;;;2.60;;
41167;SDS011;26906;45.658;9.272;2023-11-25T15:48:36;8.38;;;4.07;;
41167;SDS011;26906;45.658;9.272;2023-11-25T15:51:05;7.00;;;3.70;;
41167;SDS011;26906;45.658;9.272;2023-11-25T15:53:33;5.88;;;3.58;;
41167;SDS011;26906;45.658;9.272;2023-11-25T15:56:00;5.80;;;3.38;;
41167;SDS011;26906;45.658;9.272;2023-11-25T15:58:27;6.00;;;3.25;;
41167;SDS011;26906;45.658;9.272;2023-11-25T16:00:54;6.88;;;3.20;;
41167;SDS011;26906;45.658;9.272;2023-11-25T16:03:23;4.43;;;2.78;;
41167;SDS011;26906;45.658;9.272;2023-11-25T16:05:49;4.38;;;2.42;;
41167;SDS011;26906;45.658;9.272;2023-11-25T16:08:21;5.28;;;2.67;;
41167;SDS011;26906;45.658;9.272;2023-11-25T16:10:48;6.13;;;3.13;;
41167;SDS011;26906;45.658;9.272;2023-11-25T16:13:16;4.93;;;3.63;;
41167;SDS011;26906;45.658;9.272;2023-11-25T16:15:42;5.03;;;3.78;;
41167;SDS011;26906;45.658;9.272;2023-11-25T16:18:08;4.05;;;2.72;;
41167;SDS011;26906;45.658;9.272;2023-11-25T16:20:34;3.47;;;2.75;;
41167;SDS011;26906;45.658;9.272;2023-11-25T16:23:05;2.10;;;1.70;;
41167;SDS011;26906;45.658;9.272;2023-11-25T16:25:32;2.72;;;1.48;;
41167;SDS011;26906;45.658;9.272;2023-11-25T16:27:58;4.53;;;2.53;;
41167;SDS011;26906;45.658;9.272;2023-11-25T16:30:24;3.50;;;2.47;;
41167;SDS011;26906;45.658;9.272;2023-11-25T16:32:50;6.32;;;2.85;;
41167;SDS011;26906;45.658;9.272;2023-11-25T16:35:16;6.30;;;2.72;;
41167;SDS011;26906;45.658;9.272;2023-11-25T16:37:42;7.28;;;3.22;;
41167;SDS011;26906;45.658;9.272;2023-11-25T16:40:09;7.80;;;3.72;;
41167;SDS011;26906;45.658;9.272;2023-11-25T16:42:35;8.73;;;5.53;;
41167;SDS011;26906;45.658;9.272;2023-11-25T16:45:01;8.88;;;3.97;;
41167;SDS011;26906;45.658;9.272;2023-11-25T16:47:31;7.82;;;4.18;;
41167;SDS011;26906;45.658;9.272;2023-11-25T16:49:58;4.05;;;2.47;;
41167;SDS011;26906;45.658;9.272;2023-11-25T16:52:24;3.22;;;2.28;;
41167;SDS011;26906;45.658;9.272;2023-11-25T16:54:50;6.53;;;2.50;;
41167;SDS011;26906;45.658;9.272;2023-11-25T16:57:16;5.13;;;2.53;;
41167;SDS011;26906;45.658;9.272;2023-11-25T16:59:42;6.07;;;2.92;;
41167;SDS011;26906;45.658;9.272;2023-11-25T17:02:08;7.13;;;3.75;;
41167;SDS011;26906;45.658;9.272;2023-11-25T17:04:34;6.63;;;3.63;;
41167;SDS011;26906;45.658;9.272;2023-11-25T17:07:00;10.10;;;4.10;;
41167;SDS011;26906;45.658;9.272;2023-11-25T17:09:30;7.32;;;4.13;;
41167;SDS011;26906;45.658;9.272;2023-11-25T17:11:58;5.65;;;3.97;;
41167;SDS011;26906;45.658;9.272;2023-11-25T17:14:24;8.65;;;3.90;;
41167;SDS011;26906;45.658;9.272;2023-11-25T17:16:50;8.43;;;4.32;;
41167;SDS011;26906;45.658;9.272;2023-11-25T17:19:16;11.95;;;5.13;;
41167;SDS011;26906;45.658;9.272;2023-11-25T17:21:43;9.75;;;5.20;;
41167;SDS011;26906;45.658;9.272;2023-11-25T17:24:09;9.82;;;4.22;;
41167;SDS011;26906;45.658;9.272;2023-11-25T17:26:34;4.30;;;3.20;;
41167;SDS011;26906;45.658;9.272;2023-11-25T17:29:00;7.57;;;3.90;;
41167;SDS011;26906;45.658;9.272;2023-11-25T17:31:25;5.53;;;3.10;;
41167;SDS011;26906;45.658;9.272;2023-11-25T17:33:53;5.43;;;3.22;;
41167;SDS011;26906;45.658;9.272;2023-11-25T17:36:19;4.57;;;3.17;;
41167;SDS011;26906;45.658;9.272;2023-11-25T17:38:45;10.05;;;5.00;;
41167;SDS011;26906;45.658;9.272;2023-11-25T17:41:11;9.02;;;6.63;;
41167;SDS011;26906;45.658;9.272;2023-11-25T17:43:37;11.40;;;7.00;;
41167;SDS011;26906;45.658;9.272;2023-11-25T17:46:02;11.75;;;6.20;;
41167;SDS011;26906;45.658;9.272;2023-11-25T17:48:28;10.75;;;6.07;;
41167;SDS011;26906;45.658;9.272;2023-11-25T17:50:54;12.65;;;7.32;;
41167;SDS011;26906;45.658;9.272;2023-11-25T17:53:20;29.80;;;15.30;;
41167;SDS011;26906;45.658;9.272;2023-11-25T17:55:46;15.32;;;8.43;;
41167;SDS011;26906;45.658;9.272;2023-11-25T17:58:11;16.83;;;8.45;;
41167;SDS011;26906;45.658;9.272;2023-11-25T18:00:37;15.48;;;8.07;;
41167;SDS011;26906;45.658;9.272;2023-11-25T18:03:03;11.93;;;7.63;;
41167;SDS011;26906;45.658;9.272;2023-11-25T18:05:30;15.07;;;7.70;;
41167;SDS011;26906;45.658;9.272;2023-11-25T18:07:56;18.25;;;9.82;;
41167;SDS011;26906;45.658;9.272;2023-11-25T18:10:22;24.17;;;13.50;;
41167;SDS011;26906;45.658;9.272;2023-11-25T18:12:49;24.20;;;13.18;;
41167;SDS011;26906;45.658;9.272;2023-11-25T18:15:15;17.52;;;9.90;;
41167;SDS011;26906;45.658;9.272;2023-11-25T18:17:40;17.60;;;10.23;;
41167;SDS011;26906;45.658;9.272;2023-11-25T18:20:06;11.35;;;6.63;;
41167;SDS011;26906;45.658;9.272;2023-11-25T18:22:32;9.93;;;5.25;;
41167;SDS011;26906;45.658;9.272;2023-11-25T18:24:58;11.43;;;6.22;;
41167;SDS011;26906;45.658;9.272;2023-11-25T18:27:24;7.82;;;5.60;;
41167;SDS011;26906;45.658;9.272;2023-11-25T18:29:49;9.65;;;5.68;;
41167;SDS011;26906;45.658;9.272;2023-11-25T18:32:15;8.82;;;5.60;;
41167;SDS011;26906;45.658;9.272;2023-11-25T18:34:42;9.45;;;4.80;;
41167;SDS011;26906;45.658;9.272;2023-11-25T18:37:08;10.30;;;5.00;;
41167;SDS011;26906;45.658;9.272;2023-11-25T18:39:35;8.25;;;4.55;;
41167;SDS011;26906;45.658;9.272;2023-11-25T18:42:01;10.18;;;4.28;;
41167;SDS011;26906;45.658;9.272;2023-11-25T18:44:28;7.75;;;4.32;;
41167;SDS011;26906;45.658;9.272;2023-11-25T18:46:54;8.95;;;4.00;;
41167;SDS011;26906;45.658;9.272;2023-11-25T18:49:20;5.78;;;3.08;;
41167;SDS011;26906;45.658;9.272;2023-11-25T18:51:45;6.53;;;3.67;;
41167;SDS011;26906;45.658;9.272;2023-11-25T18:54:11;4.70;;;3.20;;
41167;SDS011;26906;45.658;9.272;2023-11-25T18:56:36;5.18;;;3.42;;
41167;SDS011;26906;45.658;9.272;2023-11-25T18:59:03;5.57;;;3.95;;
41167;SDS011;26906;45.658;9.272;2023-11-25T19:01:30;5.50;;;3.30;;
41167;SDS011;26906;45.658;9.272;2023-11-25T19:03:58;6.13;;;3.30;;
41167;SDS011;26906;45.658;9.272;2023-11-25T19:06:24;5.10;;;3.28;;
41167;SDS011;26906;45.658;9.272;2023-11-25T19:08:49;5.45;;;3.47;;
41167;SDS011;26906;45.658;9.272;2023-11-25T19:11:16;3.72;;;2.70;;
41167;SDS011;26906;45.658;9.272;2023-11-25T19:13:44;5.28;;;3.13;;
41167;SDS011;26906;45.658;9.272;2023-11-25T19:16:14;4.50;;;2.97;;
41167;SDS011;26906;45.658;9.272;2023-11-25T19:18:41;5.40;;;3.08;;
41167;SDS011;26906;45.658;9.272;2023-11-25T19:21:08;5.35;;;2.80;;
41167;SDS011;26906;45.658;9.272;2023-11-25T19:23:35;5.05;;;2.65;;
41167;SDS011;26906;45.658;9.272;2023-11-25T19:26:02;5.82;;;2.47;;
41167;SDS011;26906;45.658;9.272;2023-11-25T19:28:28;4.05;;;1.85;;
41167;SDS011;26906;45.658;9.272;2023-11-25T19:30:55;3.63;;;1.63;;
41167;SDS011;26906;45.658;9.272;2023-11-25T19:33:21;3.28;;;2.00;;
41167;SDS011;26906;45.658;9.272;2023-11-25T19:35:47;6.80;;;1.92;;
41167;SDS011;26906;45.658;9.272;2023-11-25T19:38:13;3.75;;;1.90;;
41167;SDS011;26906;45.658;9.272;2023-11-25T19:40:40;5.20;;;2.40;;
41167;SDS011;26906;45.658;9.272;2023-11-25T19:43:06;3.30;;;1.98;;
41167;SDS011;26906;45.658;9.272;2023-11-25T19:45:35;3.60;;;2.22;;
41167;SDS011;26906;45.658;9.272;2023-11-25T19:48:01;8.80;;;3.05;;
41167;SDS011;26906;45.658;9.272;2023-11-25T19:50:26;4.90;;;3.20;;
41167;SDS011;26906;45.658;9.272;2023-11-25T19:52:52;5.53;;;3.42;;
41167;SDS011;26906;45.658;9.272;2023-11-25T19:55:20;5.97;;;3.70;;
41167;SDS011;26906;45.658;9.272;2023-11-25T19:57:46;6.13;;;3.50;;
41167;SDS011;26906;45.658;9.272;2023-11-25T20:00:12;7.90;;;4.57;;
41167;SDS011;26906;45.658;9.272;2023-11-25T20:02:41;8.48;;;5.80;;
41167;SDS011;26906;45.658;9.272;2023-11-25T20:05:06;10.18;;;6.40;;
41167;SDS011;26906;45.658;9.272;2023-11-25T20:07:33;10.93;;;7.60;;
41167;SDS011;26906;45.658;9.272;2023-11-25T20:09:59;9.55;;;5.50;;
41167;SDS011;26906;45.658;9.272;2023-11-25T20:12:25;7.82;;;5.00;;
41167;SDS011;26906;45.658;9.272;2023-11-25T20:14:51;8.02;;;5.22;;
41167;SDS011;26906;45.658;9.272;2023-11-25T20:17:17;6.90;;;4.30;;
41167;SDS011;26906;45.658;9.272;2023-11-25T20:19:43;7.55;;;4.72;;
41167;SDS011;26906;45.658;9.272;2023-11-25T20:22:17;8.38;;;5.22;;
41167;SDS011;26906;45.658;9.272;2023-11-25T20:24:45;9.43;;;4.88;;
41167;SDS011;26906;45.658;9.272;2023-11-25T20:27:11;8.98;;;5.57;;
41167;SDS011;26906;45.658;9.272;2023-11-25T20:29:37;8.20;;;4.85;;
41167;SDS011;26906;45.658;9.272;2023-11-25T20:32:02;9.57;;;5.40;;
41167;SDS011;26906;45.658;9.272;2023-11-25T20:34:35;8.98;;;4.85;;
41167;SDS011;26906;45.658;9.272;2023-11-25T20:37:03;8.65;;;4.50;;
41167;SDS011;26906;45.658;9.272;2023-11-25T20:39:29;7.47;;;4.88;;
41167;SDS011;26906;45.658;9.272;2023-11-25T20:41:57;6.18;;;4.82;;
41167;SDS011;26906;45.658;9.272;2023-11-25T20:44:23;5.88;;;4.82;;
41167;SDS011;26906;45.658;9.272;2023-11-25T20:46:48;6.32;;;4.80;;
41167;SDS011;26906;45.658;9.272;2023-11-25T20:49:14;7.38;;;4.63;;
41167;SDS011;26906;45.658;9.272;2023-11-25T20:51:40;8.10;;;5.28;;
41167;SDS011;26906;45.658;9.272;2023-11-25T20:54:06;8.30;;;4.70;;
41167;SDS011;26906;45.658;9.272;2023-11-25T20:56:33;9.30;;;5.07;;
41167;SDS011;26906;45.658;9.272;2023-11-25T20:58:59;7.30;;;4.53;;
41167;SDS011;26906;45.658;9.272;2023-11-25T21:01:26;7.68;;;5.03;;
41167;SDS011;26906;45.658;9.272;2023-11-25T21:03:52;8.85;;;5.45;;
41167;SDS011;26906;45.658;9.272;2023-11-25T21:06:18;9.30;;;5.20;;
41167;SDS011;26906;45.658;9.272;2023-11-25T21:08:45;10.45;;;5.88;;
41167;SDS011;26906;45.658;9.272;2023-11-25T21:11:11;9.27;;;5.30;;
41167;SDS011;26906;45.658;9.272;2023-11-25T21:13:37;7.18;;;5.00;;
41167;SDS011;26906;45.658;9.272;2023-11-25T21:16:03;7.32;;;4.95;;
41167;SDS011;26906;45.658;9.272;2023-11-25T21:18:30;7.03;;;5.07;;
